Time;durP1;ratioP1;P1;durP2;ratioP2;P2;SDS_P1;SDS_P2;PMS_P1;PMS_P2;Temp;Humidity;BMP_temperature;BMP_pressure;BME280_temperature;BME280_humidity;BME280_pressure;Samples;Min_cycle;Max_cycle;Signal;HPM_P1;HPM_P2
2022/07/30 00:01:32;;;;;;;6.30;3.92;;;;;;;26.64;38.37;99485.78;5006931;28;20026;-75
2022/07/30 00:03:58;;;;;;;6.65;4.55;;;;;;;26.24;38.47;99428.16;5007953;28;20034;-75
2022/07/30 00:06:23;;;;;;;6.15;4.40;;;;;;;26.23;38.43;99431.94;5007790;28;20517;-75
2022/07/30 00:08:49;;;;;;;4.88;3.97;;;;;;;26.17;38.73;99424.97;5006627;28;20033;-75
2022/07/30 00:11:14;;;;;;;5.55;4.70;;;;;;;26.29;38.48;99445.16;5008166;28;20431;-75
2022/07/30 00:13:39;;;;;;;5.03;4.53;;;;;;;26.36;38.55;99455.69;5007882;28;20490;-75
2022/07/30 00:16:06;;;;;;;4.97;4.47;;;;;;;26.21;38.77;99432.22;5013121;28;20041;-75
2022/07/30 00:18:31;;;;;;;6.15;4.30;;;;;;;26.37;38.75;99460.00;5015887;28;20564;-75
2022/07/30 00:20:57;;;;;;;5.13;4.07;;;;;;;26.45;38.83;99491.88;5014354;28;20018;-74
2022/07/30 00:23:22;;;;;;;4.60;4.15;;;;;;;26.22;38.77;99460.91;5014397;28;20032;-75
2022/07/30 00:25:48;;;;;;;6.93;4.78;;;;;;;26.39;38.90;99482.19;5014168;28;20097;-75
2022/07/30 00:28:13;;;;;;;4.82;4.43;;;;;;;26.46;38.54;99479.97;5014494;28;20022;-74
2022/07/30 00:30:39;;;;;;;5.00;4.20;;;;;;;26.43;38.84;99475.13;5014243;28;20105;-75
2022/07/30 00:33:05;;;;;;;5.07;4.57;;;;;;;26.37;38.91;99478.97;5014405;28;20467;-75
2022/07/30 00:35:30;;;;;;;11.10;4.65;;;;;;;26.26;39.19;99474.69;5014250;28;20018;-75
2022/07/30 00:37:55;;;;;;;6.35;4.78;;;;;;;26.20;39.08;99475.81;5014156;28;20410;-75
2022/07/30 00:40:21;;;;;;;6.22;4.47;;;;;;;26.27;39.22;99479.00;5014083;28;20022;-75
2022/07/30 00:42:47;;;;;;;5.95;5.10;;;;;;;25.93;39.25;99419.44;5012571;28;20030;-75
2022/07/30 00:45:14;;;;;;;5.47;4.97;;;;;;;25.74;39.31;99394.16;5014014;28;20040;-75
2022/07/30 00:47:40;;;;;;;5.63;4.70;;;;;;;26.19;39.29;99472.31;5012728;28;20029;-75
2022/07/30 00:50:07;;;;;;;8.23;4.85;;;;;;;26.15;39.52;99479.38;5013786;28;20088;-75
2022/07/30 00:52:34;;;;;;;5.60;5.10;;;;;;;26.07;39.38;99462.94;5013926;28;20060;-75
2022/07/30 00:55:00;;;;;;;6.28;5.50;;;;;;;25.92;39.81;99453.81;5013748;28;20017;-75
2022/07/30 00:57:27;;;;;;;8.10;5.30;;;;;;;25.99;39.54;99464.31;5013706;28;20110;-75
2022/07/30 00:59:53;;;;;;;5.70;4.85;;;;;;;25.73;39.60;99431.22;5013863;28;20030;-74
2022/07/30 01:02:18;;;;;;;5.60;5.10;;;;;;;25.88;40.06;99460.88;5013503;28;20105;-75
2022/07/30 01:04:44;;;;;;;5.93;4.70;;;;;;;25.82;40.20;99458.47;5013513;28;20116;-75
2022/07/30 01:07:10;;;;;;;4.50;4.10;;;;;;;25.72;40.48;99448.53;5013351;28;20032;-75
2022/07/30 01:09:36;;;;;;;4.93;4.53;;;;;;;25.30;40.39;99394.94;5013537;28;20116;-75
2022/07/30 01:12:02;;;;;;;5.00;4.50;;;;;;;25.52;40.22;99440.50;5013598;28;20482;-75
2022/07/30 01:14:27;;;;;;;5.07;4.55;;;;;;;25.62;40.56;99464.78;5013371;28;20486;-75
2022/07/30 01:16:53;;;;;;;4.35;3.95;;;;;;;25.61;40.55;99463.16;5013353;28;20076;-75
2022/07/30 01:22:18;;;;;;;4.82;4.43;;;;;;;25.27;40.68;99414.41;5013142;28;20045;-75
2022/07/30 01:24:51;;;;;;;6.75;4.10;;;;;;;25.63;40.38;99450.97;5013216;28;20033;-75
2022/07/30 01:27:17;;;;;;;4.85;4.43;;;;;;;25.65;40.47;99456.94;5011668;28;20514;-75
2022/07/30 01:29:45;;;;;;;4.85;4.45;;;;;;;25.46;40.76;99436.19;5012132;28;20030;-75
2022/07/30 01:32:12;;;;;;;5.57;4.78;;;;;;;25.21;40.54;99408.19;5013111;28;20030;-75
2022/07/30 01:34:39;;;;;;;7.20;4.40;;;;;;;25.32;40.91;99422.47;5013030;28;20041;-75
2022/07/30 01:37:07;;;;;;;6.05;4.60;;;;;;;25.53;40.71;99455.63;5013011;28;20029;-75
2022/07/30 01:39:34;;;;;;;5.80;4.15;;;;;;;25.57;40.83;99448.56;5012881;28;20520;-75
2022/07/30 01:42:04;;;;;;;4.95;4.50;;;;;;;25.43;40.89;99428.66;5011575;28;20079;-75
2022/07/30 01:44:30;;;;;;;4.75;4.18;;;;;;;25.50;40.88;99451.59;5013070;28;20422;-75
2022/07/30 01:46:56;;;;;;;5.22;4.72;;;;;;;25.30;40.84;99438.97;5013137;28;20033;-75
2022/07/30 01:49:24;;;;;;;6.03;3.88;;;;;;;25.16;41.07;99410.91;5012886;28;20033;-75
2022/07/30 01:51:51;;;;;;;4.90;4.50;;;;;;;25.32;41.39;99452.22;5012765;28;20028;-75
2022/07/30 01:54:18;;;;;;;4.55;4.15;;;;;;;25.28;41.54;99460.06;5012596;28;20522;-75
2022/07/30 01:56:47;;;;;;;4.68;4.28;;;;;;;25.22;41.35;99452.22;5012420;28;20022;-75
2022/07/30 01:59:16;;;;;;;4.90;4.50;;;;;;;25.16;41.34;99437.94;5012776;28;20026;-75
2022/07/30 02:01:42;;;;;;;6.38;5.30;;;;;;;25.13;41.70;99449.28;5012421;28;20026;-74
2022/07/30 02:04:08;;;;;;;5.07;4.63;;;;;;;25.07;42.19;99452.28;5012510;28;20026;-75
2022/07/30 02:06:41;;;;;;;6.22;4.63;;;;;;;24.84;41.94;99418.56;5012473;28;20062;-75
2022/07/30 02:09:08;;;;;;;5.93;4.65;;;;;;;24.94;42.31;99449.06;5012353;28;20037;-75
2022/07/30 02:14:32;;;;;;;5.13;4.63;;;;;;;24.84;42.68;99437.47;5012315;28;20088;-75
2022/07/30 02:17:01;;;;;;;5.00;4.50;;;;;;;24.67;42.51;99425.09;5012217;28;20498;-75
2022/07/30 02:19:42;;;;;;;5.65;4.75;;;;;;;24.76;42.98;99455.03;5012269;28;20057;-75
2022/07/30 02:22:13;;;;;;;5.18;4.68;;;;;;;24.69;42.81;99443.72;5012332;28;20026;-75
2022/07/30 02:24:41;;;;;;;7.93;4.75;;;;;;;24.54;42.96;99416.75;5010910;28;20041;-75
2022/07/30 02:27:16;;;;;;;5.25;4.82;;;;;;;24.78;43.22;99450.16;5012016;28;20510;-75
2022/07/30 02:29:44;;;;;;;5.70;4.97;;;;;;;24.76;43.00;99441.53;5012281;28;20025;-75
2022/07/30 02:32:14;;;;;;;6.32;4.75;;;;;;;24.76;42.60;99443.44;5010803;28;20061;-74
2022/07/30 02:34:42;;;;;;;6.13;4.88;;;;;;;24.66;43.30;99442.38;5012059;28;20029;-75
2022/07/30 02:37:11;;;;;;;6.50;5.03;;;;;;;24.30;43.27;99402.97;5012052;28;20025;-75
2022/07/30 02:39:38;;;;;;;5.20;4.72;;;;;;;24.62;43.38;99446.69;5011875;28;20029;-75
2022/07/30 02:42:06;;;;;;;6.85;4.93;;;;;;;24.56;43.15;99436.16;5011569;28;20084;-75
2022/07/30 02:44:34;;;;;;;6.95;5.47;;;;;;;24.63;43.22;99436.69;5011782;28;20053;-75
2022/07/30 02:47:01;;;;;;;7.40;5.47;;;;;;;24.66;43.28;99441.56;5011727;28;20058;-75
2022/07/30 02:49:30;;;;;;;9.82;4.95;;;;;;;24.37;43.35;99396.22;5010491;28;20088;-74
2022/07/30 02:51:57;;;;;;;5.18;4.72;;;;;;;24.36;43.21;99399.19;5011726;28;20026;-75
2022/07/30 02:54:25;;;;;;;7.93;5.03;;;;;;;24.57;43.41;99433.19;5011619;28;20084;-75
2022/07/30 02:56:51;;;;;;;5.07;4.60;;;;;;;24.56;43.41;99444.28;5011546;28;20017;-74
2022/07/30 02:59:20;;;;;;;5.88;5.22;;;;;;;24.54;43.48;99439.16;5011663;28;20053;-75
2022/07/30 03:01:48;;;;;;;6.53;4.72;;;;;;;24.50;43.64;99443.44;5011629;28;20073;-75
2022/07/30 03:04:17;;;;;;;5.75;4.85;;;;;;;24.30;43.94;99429.97;5011710;28;20125;-75
2022/07/30 03:06:44;;;;;;;7.95;4.93;;;;;;;24.38;44.02;99446.41;5011679;28;20070;-75
2022/07/30 03:09:10;;;;;;;6.28;5.05;;;;;;;24.42;44.19;99446.69;5011620;28;20121;-75
2022/07/30 03:11:36;;;;;;;5.22;4.72;;;;;;;24.29;44.31;99452.63;5011711;28;20034;-75
2022/07/30 03:14:02;;;;;;;5.32;4.57;;;;;;;24.34;44.30;99449.94;5011551;28;20548;-75
2022/07/30 03:16:32;;;;;;;7.07;5.38;;;;;;;24.30;44.51;99455.06;5011662;28;20557;-75
2022/07/30 03:19:01;;;;;;;6.00;4.90;;;;;;;24.25;44.59;99454.22;5010264;28;20026;-75
2022/07/30 03:21:28;;;;;;;7.85;4.82;;;;;;;24.24;44.93;99453.41;5011615;28;20048;-74
2022/07/30 03:23:55;;;;;;;6.32;4.63;;;;;;;23.89;45.04;99402.16;5011509;28;20080;-75
2022/07/30 03:26:22;;;;;;;5.80;5.30;;;;;;;23.84;44.86;99402.13;5011230;28;20025;-75
2022/07/30 03:28:48;;;;;;;5.90;4.80;;;;;;;23.97;45.11;99429.38;5010136;28;20037;-75
2022/07/30 03:31:15;;;;;;;8.90;5.47;;;;;;;23.73;45.07;99406.69;5011341;28;20030;-75
2022/07/30 03:33:42;;;;;;;6.60;5.28;;;;;;;24.05;44.93;99458.53;5011752;28;20053;-75
2022/07/30 03:36:11;;;;;;;7.97;5.85;;;;;;;24.05;44.93;99463.91;5011304;28;20026;-75
2022/07/30 03:38:38;;;;;;;8.75;7.05;;;;;;;24.01;45.04;99443.16;5011126;28;20036;-75
2022/07/30 03:41:05;;;;;;;9.60;7.10;;;;;;;23.67;45.13;99387.00;5011372;28;20114;-75
2022/07/30 03:43:31;;;;;;;12.70;8.68;;;;;;;23.81;44.97;99414.28;5011423;28;20025;-75
2022/07/30 03:45:57;;;;;;;10.70;9.07;;;;;;;24.07;45.09;99448.28;5011184;28;20022;-75
2022/07/30 03:48:24;;;;;;;10.35;9.10;;;;;;;23.80;45.14;99422.63;5011194;28;20044;-75
2022/07/30 03:50:50;;;;;;;13.13;9.73;;;;;;;24.14;44.98;99456.09;5009992;28;20025;-75
2022/07/30 03:53:18;;;;;;;13.55;10.55;;;;;;;23.95;44.92;99425.34;5013326;28;20088;-75
2022/07/30 03:55:43;;;;;;;15.02;10.90;;;;;;;24.18;45.16;99461.75;5015025;28;20088;-75
2022/07/30 03:58:10;;;;;;;12.88;10.65;;;;;;;23.89;45.17;99415.63;5014874;28;20029;-75
2022/07/30 04:00:38;;;;;;;14.52;11.13;;;;;;;24.29;45.06;99468.81;5014805;28;20081;-75
2022/07/30 04:03:03;;;;;;;12.98;10.55;;;;;;;24.09;45.10;99429.94;5014729;28;20399;-75
2022/07/30 04:05:28;;;;;;;12.23;10.25;;;;;;;24.08;45.52;99425.63;5014608;28;20021;-74
2022/07/30 04:07:54;;;;;;;12.88;9.93;;;;;;;24.01;45.64;99419.69;5014481;28;20064;-75
2022/07/30 04:10:19;;;;;;;11.52;9.65;;;;;;;24.00;45.61;99418.06;5014797;28;20025;-75
2022/07/30 04:12:45;;;;;;;13.07;9.23;;;;;;;24.11;45.68;99420.75;5014773;28;20021;-75
2022/07/30 04:15:10;;;;;;;12.63;9.48;;;;;;;24.43;46.05;99463.69;5014423;28;20478;-74
2022/07/30 04:17:47;;;;;;;10.95;9.80;;;;;;;24.35;46.20;99438.88;5014153;28;20042;-75
2022/07/30 04:20:20;;;;;;;11.98;9.73;;;;;;;24.50;46.09;99465.03;5014199;28;20037;-75
2022/07/30 04:22:46;;;;;;;11.82;10.00;;;;;;;24.52;46.17;99470.16;5014185;28;20407;-74
2022/07/30 04:25:13;;;;;;;11.75;9.73;;;;;;;24.20;46.33;99402.94;5014171;28;20083;-75
2022/07/30 04:27:38;;;;;;;13.50;9.65;;;;;;;24.37;46.60;99436.69;5014230;28;20030;-74
2022/07/30 04:30:04;;;;;;;11.90;10.02;;;;;;;24.58;46.53;99471.81;5014217;28;20048;-75
2022/07/30 04:32:31;;;;;;;11.80;9.80;;;;;;;24.29;46.71;99414.84;5014230;28;20025;-74
2022/07/30 04:34:56;;;;;;;14.68;10.25;;;;;;;24.65;46.74;99466.94;5014227;28;20021;-75
2022/07/30 04:37:25;;;;;;;13.35;10.50;;;;;;;24.65;46.52;99456.94;5014198;28;20041;-75
2022/07/30 04:39:53;;;;;;;12.82;10.05;;;;;;;24.35;46.94;99405.66;5014087;28;20117;-74
2022/07/30 04:42:19;;;;;;;12.13;9.60;;;;;;;24.76;46.90;99465.84;5014073;28;20018;-75
2022/07/30 04:44:45;;;;;;;12.60;11.23;;;;;;;24.76;47.13;99462.31;5014015;28;20165;-75
2022/07/30 04:47:11;;;;;;;11.52;10.13;;;;;;;24.82;47.03;99456.63;5013849;28;20533;-75
2022/07/30 04:49:37;;;;;;;16.25;10.27;;;;;;;24.61;46.97;99418.06;5014031;28;20391;-74
2022/07/30 04:52:05;;;;;;;15.77;10.57;;;;;;;24.88;47.04;99463.66;5013901;28;20026;-74
2022/07/30 04:54:41;;;;;;;12.93;10.85;;;;;;;24.85;47.05;99447.19;5014020;28;20101;-74
2022/07/30 04:57:09;;;;;;;13.68;10.57;;;;;;;24.97;47.44;99455.78;5012503;28;20152;-75
2022/07/30 04:59:36;;;;;;;14.40;10.13;;;;;;;25.12;47.19;99460.38;5012383;28;20501;-75
2022/07/30 05:02:02;;;;;;;16.27;10.60;;;;;;;25.18;46.96;99454.69;5012135;28;20026;-75
2022/07/30 05:04:30;;;;;;;12.50;10.23;;;;;;;25.27;47.13;99463.03;5012079;28;20037;-74
2022/07/30 05:06:56;;;;;;;12.65;9.35;;;;;;;25.27;46.90;99452.25;5011954;28;20014;-75
2022/07/30 05:09:21;;;;;;;12.23;8.82;;;;;;;24.91;46.97;99389.38;5013341;28;20469;-75
2022/07/30 05:11:51;;;;;;;10.13;7.97;;;;;;;25.40;47.31;99470.56;5013314;28;20022;-75
2022/07/30 05:14:16;;;;;;;9.25;8.13;;;;;;;25.39;47.21;99466.25;5011916;28;20502;-75
2022/07/30 05:16:42;;;;;;;9.25;7.95;;;;;;;25.13;47.10;99418.75;5011894;28;20037;-75
2022/07/30 05:19:08;;;;;;;14.70;9.00;;;;;;;25.45;46.91;99469.72;5013198;28;20029;-74
2022/07/30 05:21:33;;;;;;;10.13;8.05;;;;;;;25.37;47.17;99445.97;5013053;28;20032;-75
2022/07/30 05:23:59;;;;;;;9.82;7.78;;;;;;;25.57;47.24;99471.03;5013040;28;20022;-75
2022/07/30 05:26:24;;;;;;;11.55;8.77;;;;;;;25.56;47.36;99472.09;5013000;28;20486;-75
2022/07/30 05:28:49;;;;;;;11.75;8.57;;;;;;;25.46;47.90;99444.31;5013119;28;20109;-75
2022/07/30 05:31:15;;;;;;;10.43;9.13;;;;;;;25.61;48.30;99463.16;5013077;28;20461;-75
2022/07/30 05:33:40;;;;;;;14.32;11.65;;;;;;;25.54;49.00;99439.13;5013290;28;20490;-75
2022/07/30 05:36:06;;;;;;;16.90;12.82;;;;;;;25.53;49.41;99425.91;5013105;28;20014;-74
2022/07/30 05:38:33;;;;;;;17.55;15.70;;;;;;;25.75;49.96;99447.16;5012985;28;20617;-74
2022/07/30 05:40:59;;;;;;;17.30;15.48;;;;;;;25.81;50.50;99449.53;5013022;28;20026;-75
2022/07/30 05:43:24;;;;;;;17.30;15.38;;;;;;;26.02;50.18;99468.38;5012914;28;20164;-75
2022/07/30 05:45:50;;;;;;;16.85;14.85;;;;;;;26.15;50.55;99473.16;5013140;28;20022;-74
2022/07/30 05:48:15;;;;;;;17.25;15.45;;;;;;;26.01;50.75;99439.66;5011544;28;20057;-75
2022/07/30 05:50:40;;;;;;;16.55;15.05;;;;;;;26.32;50.98;99483.56;5012599;28;20037;-75
2022/07/30 05:53:06;;;;;;;18.88;15.63;;;;;;;26.34;51.16;99487.66;5012613;28;20512;-75
2022/07/30 05:55:31;;;;;;;17.00;14.00;;;;;;;26.41;50.94;99482.72;5012704;28;20021;-75
2022/07/30 05:57:57;;;;;;;16.85;13.80;;;;;;;26.47;51.15;99484.28;5012709;28;20022;-75
2022/07/30 06:00:22;;;;;;;15.43;13.82;;;;;;;26.52;51.17;99478.03;5012708;28;20029;-75
2022/07/30 06:02:47;;;;;;;16.33;14.63;;;;;;;26.58;51.46;99483.09;5012354;28;20030;-75
2022/07/30 06:05:13;;;;;;;15.02;13.45;;;;;;;26.63;51.32;99481.44;5012467;28;20033;-75
2022/07/30 06:07:38;;;;;;;16.02;14.43;;;;;;;26.73;51.40;99487.56;5012254;28;20029;-75
2022/07/30 06:10:04;;;;;;;15.95;14.23;;;;;;;26.81;51.44;99494.31;5012590;28;20074;-75
2022/07/30 06:12:30;;;;;;;16.15;12.95;;;;;;;26.71;51.23;99459.97;5012700;28;20025;-75
2022/07/30 06:14:56;;;;;;;14.77;11.98;;;;;;;26.63;50.65;99438.13;5011837;28;20028;-75
2022/07/30 06:17:22;;;;;;;16.58;10.65;;;;;;;27.02;50.47;99482.19;5010774;28;20034;-74
2022/07/30 06:19:47;;;;;;;12.52;11.23;;;;;;;27.06;50.27;99464.25;5012117;28;20037;-75
2022/07/30 06:22:13;;;;;;;12.73;11.43;;;;;;;27.04;50.04;99444.78;5012096;28;20018;-75
2022/07/30 06:24:39;;;;;;;21.77;17.42;;;;;;;27.29;49.63;99469.97;5012047;28;20037;-75
2022/07/30 06:27:04;;;;;;;21.30;19.17;;;;;;;27.26;49.53;99459.69;5012017;28;20025;-75
2022/07/30 06:29:30;;;;;;;32.28;25.83;;;;;;;27.04;49.40;99420.38;5012100;28;20029;-75
2022/07/30 06:31:55;;;;;;;24.77;22.20;;;;;;;27.09;49.22;99428.44;5011869;28;20097;-75
2022/07/30 06:34:21;;;;;;;20.60;18.38;;;;;;;27.38;48.93;99468.22;5011939;28;20159;-75
2022/07/30 06:36:47;;;;;;;20.50;18.40;;;;;;;27.33;48.35;99438.47;5010661;28;20402;-75
2022/07/30 06:39:12;;;;;;;18.10;16.30;;;;;;;27.39;47.97;99434.59;5011994;28;20105;-75
2022/07/30 06:41:38;;;;;;;18.80;15.75;;;;;;;27.46;47.52;99430.41;5010455;28;20071;-75
2022/07/30 06:44:03;;;;;;;17.58;15.70;;;;;;;27.71;47.69;99453.72;5011778;28;20044;-75
2022/07/30 06:46:29;;;;;;;15.98;13.32;;;;;;;27.66;47.54;99436.72;5011568;28;20037;-75
2022/07/30 06:48:55;;;;;;;13.48;11.93;;;;;;;27.88;47.02;99452.41;5011609;28;20026;-75
2022/07/30 06:51:20;;;;;;;15.25;13.70;;;;;;;27.65;46.30;99403.34;5011766;28;20560;-75
2022/07/30 06:53:46;;;;;;;13.50;12.05;;;;;;;27.90;46.15;99442.06;5011849;28;20413;-75
2022/07/30 06:56:12;;;;;;;12.77;11.55;;;;;;;27.96;45.71;99449.03;5011754;28;20383;-75
2022/07/30 06:58:38;;;;;;;14.73;13.02;;;;;;;27.82;45.49;99402.84;5011522;28;20025;-75
2022/07/30 07:01:03;;;;;;;15.70;13.02;;;;;;;28.15;45.48;99439.75;5011823;28;20018;-75
2022/07/30 07:03:28;;;;;;;12.30;11.10;;;;;;;28.21;45.00;99432.31;5011715;28;20025;-75
2022/07/30 07:05:54;;;;;;;9.77;8.88;;;;;;;28.25;44.63;99425.25;5011418;28;20113;-75
2022/07/30 07:08:19;;;;;;;11.70;10.50;;;;;;;28.37;44.44;99424.78;5011255;28;20469;-75
2022/07/30 07:10:45;;;;;;;12.45;9.50;;;;;;;28.44;44.08;99427.94;5011466;28;20029;-75
2022/07/30 07:13:10;;;;;;;14.65;8.40;;;;;;;28.48;44.08;99418.06;5011431;28;20087;-75
2022/07/30 07:15:35;;;;;;;13.07;7.38;;;;;;;28.64;43.46;99427.56;5011012;28;20029;-75
2022/07/30 07:18:01;;;;;;;9.30;8.38;;;;;;;28.72;43.44;99420.63;5011225;28;20435;-75
2022/07/30 07:20:26;;;;;;;10.95;8.38;;;;;;;28.54;42.07;99372.63;5011347;28;20013;-75
2022/07/30 07:22:52;;;;;;;11.70;8.70;;;;;;;28.47;42.48;99364.84;5011519;28;20052;-75
2022/07/30 07:25:17;;;;;;;11.77;9.20;;;;;;;28.84;42.05;99417.44;5011249;28;20414;-74
2022/07/30 07:27:42;;;;;;;8.95;8.05;;;;;;;28.96;41.75;99423.19;5012342;28;20030;-75
2022/07/30 07:30:08;;;;;;;13.82;7.93;;;;;;;29.04;41.86;99420.59;5013883;28;20036;-75
2022/07/30 07:32:35;;;;;;;10.70;7.75;;;;;;;29.12;41.26;99419.06;5015166;28;20894;-75
2022/07/30 07:35:00;;;;;;;11.77;8.18;;;;;;;29.15;41.37;99426.63;5015259;28;20084;-75
2022/07/30 07:37:26;;;;;;;8.82;7.85;;;;;;;29.14;41.24;99416.06;5015260;28;20478;-75
2022/07/30 07:39:52;;;;;;;8.52;7.15;;;;;;;29.18;40.82;99417.84;5015017;28;20034;-75
2022/07/30 07:42:17;;;;;;;9.52;6.03;;;;;;;29.30;40.92;99425.50;5015101;28;20030;-75
2022/07/30 07:44:42;;;;;;;7.85;5.95;;;;;;;29.39;40.72;99427.19;5015069;28;20108;-75
2022/07/30 07:47:08;;;;;;;7.80;5.70;;;;;;;29.20;40.43;99396.59;5014649;28;20037;-75
2022/07/30 07:49:33;;;;;;;7.90;5.47;;;;;;;29.51;40.65;99425.91;5014853;28;20033;-75
2022/07/30 07:51:59;;;;;;;6.53;5.93;;;;;;;29.55;40.02;99433.13;5014788;28;20026;-75
2022/07/30 07:54:24;;;;;;;8.60;4.80;;;;;;;29.26;39.72;99375.53;5014817;28;20048;-75
2022/07/30 07:56:50;;;;;;;5.80;4.82;;;;;;;29.56;38.88;99421.13;5014718;28;20032;-75
2022/07/30 07:59:16;;;;;;;6.05;4.95;;;;;;;29.69;38.25;99430.38;5015046;28;20112;-75
2022/07/30 08:01:41;;;;;;;6.00;4.70;;;;;;;29.33;37.46;99363.13;5014785;28;20113;-75
2022/07/30 08:04:07;;;;;;;10.50;6.22;;;;;;;29.79;36.86;99424.72;5015029;28;20061;-75
2022/07/30 08:06:32;;;;;;;6.70;4.55;;;;;;;29.54;37.24;99370.88;5014590;28;20038;-75
2022/07/30 08:09:00;;;;;;;5.90;4.95;;;;;;;30.01;36.85;99413.03;5014567;28;20080;-75
2022/07/30 08:11:25;;;;;;;9.45;7.82;;;;;;;30.17;36.35;99408.88;5014556;28;20029;-75
2022/07/30 08:13:51;;;;;;;23.88;21.55;;;;;;;30.11;36.49;99390.25;5014481;28;20510;-74
2022/07/30 08:16:17;;;;;;;6.60;6.00;;;;;;;30.12;35.77;99359.16;5014357;28;21364;-75
2022/07/30 08:18:42;;;;;;;7.03;5.35;;;;;;;30.36;34.77;99400.47;5014315;28;20105;-76
2022/07/30 08:21:08;;;;;;;7.22;6.63;;;;;;;30.36;34.41;99376.78;5014471;28;20017;-75
2022/07/30 08:23:33;;;;;;;12.25;8.65;;;;;;;30.42;34.63;99360.28;5014379;28;20391;-75
2022/07/30 08:25:59;;;;;;;10.98;8.20;;;;;;;30.62;34.61;99374.22;5014173;28;20025;-75
2022/07/30 08:28:25;;;;;;;9.02;7.10;;;;;;;30.89;34.60;99403.19;5014253;28;20571;-75
2022/07/30 08:30:51;;;;;;;5.28;4.55;;;;;;;30.89;34.04;99397.72;5014228;28;20033;-75
2022/07/30 08:33:16;;;;;;;5.43;4.53;;;;;;;31.03;34.02;99394.88;5014192;28;20077;-75
2022/07/30 08:35:42;;;;;;;7.45;4.93;;;;;;;31.05;33.91;99386.38;5014224;28;20414;-75
2022/07/30 08:38:07;;;;;;;4.82;3.80;;;;;;;30.82;33.27;99340.13;5012367;28;20030;-75
2022/07/30 08:40:34;;;;;;;7.40;4.35;;;;;;;31.35;33.12;99390.97;5012813;28;20028;-75
2022/07/30 08:43:03;;;;;;;12.88;11.38;;;;;;;31.50;32.52;99392.44;5013979;28;20450;-75
2022/07/30 08:45:29;;;;;;;7.85;6.60;;;;;;;31.65;32.45;99385.69;5013908;28;20029;-75
2022/07/30 08:47:56;;;;;;;5.63;4.22;;;;;;;31.54;32.00;99355.19;5013921;28;20414;-75
2022/07/30 08:50:22;;;;;;;12.45;6.43;;;;;;;31.57;31.28;99336.25;5013721;28;20045;-75
2022/07/30 08:52:49;;;;;;;6.47;4.07;;;;;;;31.96;31.11;99372.72;5013736;28;20026;-75
2022/07/30 08:55:14;;;;;;;7.72;6.00;;;;;;;31.81;31.42;99341.25;5013608;28;20034;-75
2022/07/30 08:57:40;;;;;;;4.93;3.80;;;;;;;32.20;30.74;99373.00;5013750;28;20156;-75
2022/07/30 09:00:07;;;;;;;6.78;5.00;;;;;;;32.32;31.10;99374.28;5012400;28;20048;-75
2022/07/30 09:02:32;;;;;;;9.98;5.78;;;;;;;32.18;31.02;99336.19;5013677;28;20526;-75
2022/07/30 09:04:58;;;;;;;7.53;6.20;;;;;;;32.59;30.50;99368.38;5013634;28;20108;-75
2022/07/30 09:07:23;;;;;;;7.07;6.40;;;;;;;32.54;30.38;99335.78;5013431;28;20156;-75
2022/07/30 09:09:49;;;;;;;6.57;4.97;;;;;;;32.69;29.99;99339.88;5013379;28;20060;-75
2022/07/30 09:12:36;;;;;;;7.28;6.40;;;;;;;32.98;29.69;99352.81;5013400;28;20033;-75
2022/07/30 09:15:02;;;;;;;8.95;6.22;;;;;;;33.11;29.71;99352.56;5013326;28;20049;-75
2022/07/30 09:17:27;;;;;;;4.25;3.85;;;;;;;33.18;29.37;99333.69;5011821;28;20084;-75
2022/07/30 09:20:05;;;;;;;5.10;4.53;;;;;;;33.10;28.55;99301.72;5013256;28;20034;-75
2022/07/30 09:22:48;;;;;;;6.68;3.97;;;;;;;33.59;28.63;99362.22;5013331;28;20029;-75
2022/07/30 09:25:14;;;;;;;5.28;4.55;;;;;;;33.44;28.53;99327.22;5013358;28;20033;-75
2022/07/30 09:27:48;;;;;;;6.25;4.88;;;;;;;33.82;28.49;99356.41;5011790;28;20029;-75
2022/07/30 09:30:14;;;;;;;5.78;4.85;;;;;;;34.06;27.97;99362.78;5013032;28;20507;-75
2022/07/30 09:32:50;;;;;;;5.15;4.75;;;;;;;34.02;27.84;99300.78;5012860;28;20105;-75
2022/07/30 09:35:17;;;;;;;5.05;4.55;;;;;;;34.57;27.33;99357.09;5013050;28;20032;-75
2022/07/30 09:37:43;;;;;;;4.63;4.18;;;;;;;34.32;26.70;99310.47;5012954;28;20053;-75
2022/07/30 09:40:17;;;;;;;4.38;4.03;;;;;;;34.73;26.54;99342.34;5011619;28;20116;-75
2022/07/30 09:42:43;;;;;;;8.35;5.15;;;;;;;34.50;26.56;99291.84;5013007;28;20022;-75
2022/07/30 09:45:13;;;;;;;4.68;4.25;;;;;;;35.02;26.06;99340.53;5012857;28;20037;-75
2022/07/30 09:47:44;;;;;;;6.28;5.68;;;;;;;35.17;26.10;99331.59;5011480;28;20026;-75
2022/07/30 09:50:10;;;;;;;4.78;4.35;;;;;;;35.34;25.70;99333.28;5011919;28;20499;-75
2022/07/30 09:52:37;;;;;;;5.90;5.40;;;;;;;35.43;25.77;99314.72;5012702;28;20030;-75
2022/07/30 09:55:02;;;;;;;5.15;4.65;;;;;;;35.53;25.12;99302.44;5011273;28;20545;-77
2022/07/30 09:57:28;;;;;;;7.38;4.53;;;;;;;35.75;25.04;99320.34;5012498;28;20018;-75
2022/07/30 09:59:56;;;;;;;4.75;4.35;;;;;;;35.73;24.74;99304.22;5012464;28;20021;-75
2022/07/30 10:02:31;;;;;;;4.45;3.90;;;;;;;35.81;24.39;99288.75;5012303;28;20530;-75
2022/07/30 10:05:09;;;;;;;5.70;4.20;;;;;;;36.21;24.21;99322.38;5012299;28;20029;-75
2022/07/30 10:07:35;;;;;;;4.82;4.43;;;;;;;36.17;24.07;99296.75;5012293;28;20022;-75
2022/07/30 10:10:01;;;;;;;5.05;4.47;;;;;;;36.46;23.85;99314.81;5012358;28;20521;-75
2022/07/30 10:12:27;;;;;;;4.03;3.72;;;;;;;36.62;23.34;99328.53;5012201;28;20476;-75
2022/07/30 10:14:53;;;;;;;4.40;4.10;;;;;;;36.46;23.81;99276.31;5012026;28;20486;-77
2022/07/30 10:17:19;;;;;;;4.53;4.18;;;;;;;36.68;23.19;99288.59;5012244;28;20088;-75
2022/07/30 10:19:45;;;;;;;4.78;4.32;;;;;;;36.89;23.40;99271.78;5012169;28;20033;-75
2022/07/30 10:22:12;;;;;;;4.32;3.92;;;;;;;37.00;23.21;99261.03;5012031;28;20034;-75
2022/07/30 10:24:39;;;;;;;6.28;4.93;;;;;;;37.29;23.04;99278.97;5011942;28;20029;-75
2022/07/30 10:27:07;;;;;;;6.13;5.63;;;;;;;37.42;22.85;99278.47;5011810;28;20046;-77
2022/07/30 10:29:37;;;;;;;4.45;4.05;;;;;;;37.68;22.33;99279.72;5011840;28;20092;-75
2022/07/30 10:32:03;;;;;;;4.85;4.45;;;;;;;37.80;22.16;99279.59;5012001;28;20026;-75
2022/07/30 10:34:31;;;;;;;7.53;6.82;;;;;;;37.91;22.02;99271.53;5012071;28;20402;-75
2022/07/30 10:37:00;;;;;;;7.22;6.53;;;;;;;37.82;21.85;99231.22;5010339;28;20100;-75
2022/07/30 10:39:38;;;;;;;4.38;3.92;;;;;;;38.01;21.35;99224.06;5011598;28;20033;-75
2022/07/30 10:42:06;;;;;;;5.70;5.20;;;;;;;38.41;21.70;99267.66;5011878;28;20414;-75
2022/07/30 10:45:00;;;;;;;6.97;4.40;;;;;;;38.57;21.36;99265.53;5011740;28;20100;-75
2022/07/30 10:47:27;;;;;;;5.80;4.38;;;;;;;38.61;21.66;99271.16;4997077;28;20588;-75
2022/07/30 10:50:05;;;;;;;5.20;4.80;;;;;;;38.81;21.41;99272.66;5011719;28;20033;-75
2022/07/30 10:52:53;;;;;;;5.13;4.40;;;;;;;39.06;21.00;99267.47;5011847;28;20021;-75
2022/07/30 10:55:30;;;;;;;4.70;4.00;;;;;;;39.00;19.90;99238.59;5011632;28;20096;-74
2022/07/30 10:57:58;;;;;;;4.50;4.10;;;;;;;39.27;20.69;99266.94;5011581;28;20044;-75
2022/07/30 11:00:24;;;;;;;5.68;5.28;;;;;;;39.05;20.12;99241.03;5011573;28;20029;-75
2022/07/30 11:03:15;;;;;;;6.68;5.93;;;;;;;39.25;20.63;99255.47;5011388;28;20030;-77
2022/07/30 11:05:41;;;;;;;7.13;6.53;;;;;;;39.35;20.49;99255.59;5011568;28;20018;-76
2022/07/30 11:08:31;;;;;;;5.18;4.18;;;;;;;39.41;19.77;99239.50;5011603;28;20037;-75
2022/07/30 11:10:57;;;;;;;7.07;6.43;;;;;;;39.09;20.18;99198.50;5010056;28;20454;-75
2022/07/30 11:13:57;;;;;;;7.00;6.38;;;;;;;39.49;20.15;99240.41;5011299;28;20065;-76
2022/07/30 11:16:43;;;;;;;5.53;5.03;;;;;;;39.65;19.85;99233.47;5011504;28;20068;-75
2022/07/30 11:19:17;;;;;;;6.18;5.60;;;;;;;39.43;20.39;99217.81;5004712;28;20041;-75
2022/07/30 11:21:45;;;;;;;5.65;5.15;;;;;;;39.62;19.75;99228.69;5011405;28;20095;-76
2022/07/30 11:24:46;;;;;;;5.68;4.13;;;;;;;39.71;20.11;99220.88;5011447;28;20025;-75
2022/07/30 11:27:30;;;;;;;;;;;;;;;39.63;19.91;99226.72;5011626;28;20564;-76
2022/07/30 11:29:55;;;;;;;5.28;4.78;;;;;;;39.56;19.91;99223.91;5010053;28;20314;-75
2022/07/30 11:32:25;;;;;;;6.07;5.57;;;;;;;39.60;19.80;99202.63;5011417;28;20021;-76
2022/07/30 11:34:51;;;;;;;6.97;5.55;;;;;;;39.46;19.74;99183.91;5011454;28;20096;-75
2022/07/30 11:37:17;;;;;;;5.40;5.00;;;;;;;39.67;19.27;99206.25;5011498;28;20030;-76